createdAt,value
2018-04-23T00:00:47.703Z,83.19
2018-04-23T00:03:15.257Z,83.21
2018-04-23T00:05:42.920Z,83.23
2018-04-23T00:08:11.719Z,83.43
2018-04-23T00:10:43.881Z,83.30
2018-04-23T00:13:13.052Z,83.43
2018-04-23T00:15:40.809Z,83.46
2018-04-23T00:18:08.455Z,83.48
2018-04-23T00:20:36.024Z,83.66
2018-04-23T00:23:03.603Z,83.71
2018-04-23T00:25:43.509Z,84.08
2018-04-23T00:28:16.783Z,83.88
2018-04-23T00:30:44.726Z,83.83
2018-04-23T00:33:12.917Z,83.95
2018-04-23T00:35:40.464Z,84.05
2018-04-23T00:38:08.122Z,84.08
2018-04-23T00:40:37.143Z,83.99
2018-04-23T00:43:04.831Z,84.06
2018-04-23T00:45:34.873Z,83.93
2018-04-23T00:48:09.013Z,84.05
2018-04-23T00:50:37.802Z,84.17
2018-04-23T00:53:17.761Z,84.23
2018-04-23T00:55:45.356Z,84.13
2018-04-23T00:58:12.968Z,84.08
2018-04-23T01:00:40.637Z,84.08
2018-04-23T01:03:08.954Z,84.02
2018-04-23T01:05:36.604Z,84.06
2018-04-23T01:08:07.965Z,84.03
2018-04-23T01:10:35.639Z,83.93
2018-04-23T01:13:03.283Z,83.99
2018-04-23T01:15:30.911Z,83.92
2018-04-23T01:18:00.426Z,83.79
2018-04-23T01:20:28.866Z,83.86
2018-04-23T01:22:56.594Z,83.77
2018-04-23T01:25:24.828Z,83.68
2018-04-23T01:27:52.391Z,83.64
2018-04-23T01:30:19.977Z,83.70
2018-04-23T01:32:47.667Z,83.57
2018-04-23T01:35:16.951Z,83.49
2018-04-23T01:37:44.599Z,83.50
2018-04-23T01:40:14.975Z,83.65
2018-04-23T01:42:45.216Z,83.69
2018-04-23T01:45:13.823Z,83.57
2018-04-23T01:47:41.480Z,83.61
2018-04-23T01:50:09.076Z,83.64
2018-04-23T01:55:31.081Z,83.50
2018-04-23T01:58:02.942Z,83.49
2018-04-23T02:00:30.552Z,83.55
2018-04-23T02:02:58.100Z,83.56
2018-04-23T02:05:25.641Z,83.99
2018-04-23T02:07:53.202Z,84.12
2018-04-23T02:10:20.824Z,84.06
2018-04-23T02:12:50.994Z,84.07
2018-04-23T02:15:21.107Z,84.14
2018-04-23T02:17:48.647Z,84.11
2018-04-23T02:20:16.282Z,84.36
2018-04-23T02:22:43.812Z,84.50
2018-04-23T02:25:11.422Z,84.72
2018-04-23T02:27:43.909Z,84.68
2018-04-23T02:30:17.070Z,84.57
2018-04-23T02:32:44.765Z,84.69
2018-04-23T02:35:12.393Z,84.70
2018-04-23T02:37:39.928Z,84.69
2018-04-23T02:40:07.496Z,84.84
2018-04-23T02:42:36.047Z,84.86
2018-04-23T02:45:05.366Z,84.98
2018-04-23T02:47:36.163Z,85.13
2018-04-23T02:50:04.796Z,85.28
2018-04-23T02:52:32.304Z,85.39
2018-04-23T02:54:59.823Z,85.43
2018-04-23T02:57:27.348Z,85.55
2018-04-23T02:59:55.668Z,85.50
2018-04-23T03:02:24.965Z,85.87
2018-04-23T03:10:36.963Z,86.01
2018-04-23T03:13:04.547Z,86.00
2018-04-23T03:15:32.195Z,85.99
2018-04-23T03:21:59.781Z,86.17
2018-04-23T03:24:31.246Z,86.18
2018-04-23T03:26:59.845Z,86.28
2018-04-23T03:29:27.365Z,86.26
2018-04-23T03:31:54.900Z,86.20
2018-04-23T03:34:22.537Z,86.26
2018-04-23T03:39:44.289Z,86.32
2018-04-23T03:42:12.829Z,86.25
2018-04-23T03:44:41.247Z,86.17
2018-04-23T03:47:08.839Z,86.07
2018-04-23T03:49:36.433Z,85.85
2018-04-23T03:52:04.033Z,85.70
2018-04-23T03:54:36.449Z,85.65
2018-04-23T03:57:07.020Z,85.63
2018-04-23T03:59:37.242Z,85.56
2018-04-23T04:02:05.863Z,85.49
2018-04-23T04:04:34.123Z,85.50
2018-04-23T04:07:01.718Z,85.48
2018-04-23T04:09:29.323Z,85.41
2018-04-23T04:11:56.903Z,85.45
2018-04-23T04:14:36.759Z,85.47
2018-04-23T04:17:08.124Z,85.48
2018-04-23T04:19:35.690Z,85.57
2018-04-23T04:22:03.341Z,85.50
2018-04-23T04:24:30.944Z,85.50
2018-04-23T04:26:58.503Z,85.47
2018-04-23T04:29:27.811Z,85.48
2018-04-23T04:31:59.491Z,85.55
2018-04-23T04:34:31.919Z,85.58
2018-04-23T04:36:59.512Z,85.74
2018-04-23T04:39:27.047Z,85.63
2018-04-23T04:41:54.621Z,85.70
2018-04-23T04:44:22.200Z,85.67
2018-04-23T04:46:51.983Z,85.65
2018-04-23T04:49:20.856Z,85.67
2018-04-23T04:51:49.053Z,85.63
2018-04-23T04:54:17.240Z,85.56
2018-04-23T04:56:44.783Z,85.50
2018-04-23T04:59:12.369Z,85.53
2018-04-23T05:01:39.955Z,85.50
2018-04-23T05:04:12.509Z,85.45
2018-04-23T05:06:41.182Z,85.49
2018-04-23T05:09:08.807Z,85.42
2018-04-23T05:11:36.458Z,85.40
2018-04-23T05:14:04.127Z,85.40
2018-04-23T05:16:31.740Z,85.48
2018-04-23T05:18:59.300Z,85.47
2018-04-23T05:21:31.143Z,85.50
2018-04-23T05:24:00.672Z,85.44
2018-04-23T05:26:31.225Z,85.49
2018-04-23T05:28:58.768Z,85.55
2018-04-23T05:31:26.297Z,85.63
2018-04-23T05:33:53.838Z,85.69
2018-04-23T05:36:21.401Z,85.66
2018-04-23T05:38:49.049Z,85.66
2018-04-23T05:41:16.761Z,85.86
2018-04-23T05:43:44.877Z,85.80
2018-04-23T05:46:12.479Z,85.87
2018-04-23T05:48:40.061Z,85.81
2018-04-23T05:51:07.613Z,85.78
2018-04-23T05:53:35.205Z,85.88
2018-04-23T05:56:04.731Z,86.00
2018-04-23T06:05:19.015Z,86.42
2018-04-23T06:07:47.449Z,86.38
2018-04-23T06:10:15.039Z,86.42
2018-04-23T06:15:47.049Z,86.38
2018-04-23T06:21:24.023Z,86.43
2018-04-23T06:23:51.710Z,86.40
2018-04-23T06:26:19.278Z,86.38
2018-04-23T06:37:58.354Z,86.39
2018-04-23T06:40:26.036Z,86.50
2018-04-23T06:42:53.671Z,86.46
2018-04-23T06:45:21.511Z,86.45
2018-04-23T06:56:31.600Z,86.17
2018-04-23T06:58:59.172Z,85.98
2018-04-23T07:01:26.919Z,85.89
2018-04-23T07:13:02.476Z,85.34
2018-04-23T07:15:30.086Z,85.15
2018-04-23T07:17:57.705Z,85.09
2018-04-23T07:29:54.759Z,84.90
2018-04-23T07:32:22.311Z,84.82
2018-04-23T07:34:49.859Z,84.77
2018-04-23T07:46:31.716Z,83.79
2018-04-23T07:48:59.303Z,83.65
2018-04-23T07:51:26.865Z,83.33
2018-04-23T08:03:03.474Z,81.84
2018-04-23T08:05:31.453Z,81.35
2018-04-23T08:07:59.096Z,81.00
2018-04-23T08:10:26.895Z,81.07
2018-04-23T08:22:03.385Z,80.47
2018-04-23T08:24:30.984Z,79.22
2018-04-23T08:26:58.543Z,79.37
2018-04-23T08:35:35.290Z,78.63
2018-04-23T08:38:02.947Z,78.44
2018-04-23T08:40:30.720Z,78.59
2018-04-23T08:42:58.255Z,78.44
2018-04-23T08:56:34.187Z,76.50
2018-04-23T08:59:01.802Z,74.83
2018-04-23T09:01:29.470Z,73.60
2018-04-23T09:12:56.034Z,70.93
2018-04-23T09:15:23.615Z,70.53
2018-04-23T09:17:51.267Z,71.60
2018-04-23T09:29:27.559Z,69.75
2018-04-23T09:31:55.404Z,70.28
2018-04-23T09:34:23.053Z,70.80
2018-04-23T09:45:48.287Z,71.15
2018-04-23T09:48:15.899Z,70.84
2018-04-23T09:50:43.537Z,71.29
2018-04-23T09:53:11.172Z,71.09
2018-04-23T10:03:55.136Z,71.34
2018-04-23T10:06:22.653Z,70.48
2018-04-23T10:08:51.308Z,68.81
2018-04-23T10:19:58.403Z,67.94
2018-04-23T10:22:26.071Z,67.20
2018-04-23T10:24:53.604Z,66.65
2018-04-23T10:27:22.186Z,66.98
2018-04-23T10:38:02.310Z,68.72
2018-04-23T10:40:29.899Z,69.09
2018-04-23T10:42:57.455Z,69.07
2018-04-23T10:45:25.418Z,69.41
2018-04-23T10:55:50.842Z,69.54
2018-04-23T10:58:18.511Z,69.55
2018-04-23T11:00:46.123Z,69.61
2018-04-23T11:12:36.391Z,69.67
2018-04-23T11:15:03.907Z,69.57
2018-04-23T11:17:31.483Z,70.25
2018-04-23T11:30:28.863Z,67.32
2018-04-23T11:32:56.444Z,68.38
2018-04-23T11:35:23.967Z,68.69
2018-04-23T11:48:27.678Z,68.35
2018-04-23T11:50:55.262Z,68.48
2018-04-23T11:53:22.879Z,68.48
2018-04-23T11:55:56.403Z,67.59
2018-04-23T12:03:44.062Z,65.65
2018-04-23T12:06:11.603Z,64.59
2018-04-23T12:08:41.277Z,64.85
2018-04-23T12:11:09.104Z,64.26
2018-04-23T12:21:20.033Z,61.67
2018-04-23T12:23:47.599Z,62.07
2018-04-23T12:26:15.223Z,62.31
2018-04-23T12:28:42.832Z,61.71
2018-04-23T12:33:48.985Z,61.48
2018-04-23T12:36:24.259Z,61.23
2018-04-23T12:38:51.867Z,61.50
2018-04-23T12:41:19.426Z,62.25
2018-04-23T12:43:46.967Z,61.74
2018-04-23T12:46:16.843Z,61.85
2018-04-23T12:48:52.401Z,62.31
2018-04-23T12:51:32.642Z,63.03
2018-04-23T12:56:52.804Z,62.09
2018-04-23T12:59:20.432Z,61.84
2018-04-23T13:01:48.012Z,61.82
2018-04-23T13:12:52.196Z,60.81
2018-04-23T13:15:20.392Z,61.21
2018-04-23T13:17:47.923Z,60.69
2018-04-23T13:20:15.726Z,60.48
2018-04-23T13:31:52.191Z,61.13
2018-04-23T13:34:20.877Z,61.25
2018-04-23T13:36:48.523Z,61.23
2018-04-23T13:48:25.549Z,61.29
2018-04-23T13:50:53.222Z,60.71
2018-04-23T13:53:20.835Z,61.30
2018-04-23T14:04:57.329Z,60.07
2018-04-23T14:07:25.265Z,60.20
2018-04-23T14:09:53.430Z,59.98
2018-04-23T14:21:30.073Z,59.96
2018-04-23T14:23:57.746Z,60.35
2018-04-23T14:26:26.964Z,60.37
2018-04-23T14:38:04.013Z,61.60
2018-04-23T14:40:31.581Z,61.94
2018-04-23T14:43:00.015Z,62.46
2018-04-23T14:54:57.709Z,62.67
2018-04-23T14:57:25.336Z,62.64
2018-04-23T14:59:52.984Z,62.89
2018-04-23T15:02:22.740Z,62.83
2018-04-23T15:14:03.188Z,62.98
2018-04-23T15:16:31.071Z,62.94
2018-04-23T15:19:12.359Z,63.53
2018-04-23T15:33:57.824Z,66.15
2018-04-23T15:48:36.925Z,66.79
2018-04-23T15:51:06.377Z,67.19
2018-04-23T16:05:35.969Z,67.36
2018-04-23T16:08:03.874Z,67.32
2018-04-23T16:22:30.813Z,68.13
2018-04-23T16:25:01.742Z,69.82
2018-04-23T16:39:35.213Z,70.37
2018-04-23T16:42:03.735Z,70.95
2018-04-23T16:56:43.014Z,73.68
2018-04-23T16:59:17.647Z,74.00
2018-04-23T17:01:47.193Z,74.22
2018-04-23T17:13:24.321Z,74.54
2018-04-23T17:15:51.953Z,74.34
2018-04-23T17:18:20.393Z,74.41
2018-04-23T17:29:56.657Z,74.51
2018-04-23T17:32:25.034Z,74.81
2018-04-23T17:46:52.612Z,75.43
2018-04-23T17:49:20.198Z,75.81
2018-04-23T17:51:47.795Z,75.93
2018-04-23T18:03:25.238Z,79.05
2018-04-23T18:05:53.415Z,78.90
2018-04-23T18:08:21.080Z,78.97
2018-04-23T18:19:49.924Z,80.53
2018-04-23T18:22:17.692Z,80.94
2018-04-23T18:24:45.417Z,81.26
2018-04-23T18:27:14.279Z,81.58
2018-04-23T18:38:47.108Z,82.48
2018-04-23T18:41:14.748Z,82.88
2018-04-23T18:43:42.417Z,82.98
2018-04-23T18:55:06.245Z,83.63
2018-04-23T18:57:33.932Z,83.69
2018-04-23T19:00:02.125Z,83.93
2018-04-23T19:11:46.698Z,86.33
2018-04-23T19:14:14.229Z,86.71
2018-04-23T19:16:41.794Z,87.15
2018-04-23T19:28:23.930Z,87.64
2018-04-23T19:30:52.228Z,87.76
2018-04-23T19:33:19.819Z,87.89
2018-04-23T19:35:47.391Z,87.87
2018-04-23T19:47:23.262Z,88.28
2018-04-23T19:49:50.927Z,88.36
2018-04-23T19:52:18.610Z,88.34
2018-04-23T20:03:55.358Z,88.68
2018-04-23T20:06:23.116Z,88.83
2018-04-23T20:08:50.837Z,89.10
2018-04-23T20:20:27.756Z,90.14
2018-04-23T20:22:55.942Z,90.39
2018-04-23T20:25:23.547Z,90.47
2018-04-23T20:37:00.119Z,90.90
2018-04-23T20:39:27.725Z,90.97
2018-04-23T20:41:55.464Z,91.05
2018-04-23T20:53:49.407Z,91.41
2018-04-23T20:56:19.124Z,91.44
2018-04-23T20:58:47.567Z,91.58
2018-04-23T21:10:50.201Z,91.99
2018-04-23T21:13:18.841Z,92.04
2018-04-23T21:15:47.395Z,92.15
2018-04-23T21:30:16.580Z,92.54
2018-04-23T21:32:44.224Z,92.64
2018-04-23T21:35:11.851Z,92.74
2018-04-23T21:46:47.527Z,92.83
2018-04-23T21:49:15.157Z,92.83
2018-04-23T21:51:42.704Z,92.86
2018-04-23T22:03:18.454Z,92.83
2018-04-23T22:05:46.139Z,92.91
2018-04-23T22:08:13.750Z,92.98
2018-04-23T22:19:49.728Z,93.00
2018-04-23T22:22:17.299Z,93.03
2018-04-23T22:24:44.873Z,93.04
2018-04-23T22:36:21.185Z,93.08
2018-04-23T22:38:48.863Z,93.02
2018-04-23T22:41:16.439Z,92.91
2018-04-23T22:43:44.067Z,92.85
2018-04-23T22:55:19.807Z,92.53
2018-04-23T22:57:47.554Z,92.48
2018-04-23T23:00:16.259Z,92.41
2018-04-23T23:11:51.931Z,92.08
2018-04-23T23:14:19.475Z,92.01
2018-04-23T23:16:47.049Z,91.97
2018-04-23T23:28:22.554Z,91.98
2018-04-23T23:30:51.107Z,92.01
2018-04-23T23:33:19.551Z,92.01
2018-04-23T23:44:55.747Z,92.04
2018-04-23T23:47:24.255Z,92.02
2018-04-23T23:49:52.879Z,92.04
